Time;durP1;ratioP1;P1;durP2;ratioP2;P2;SDS_P1;SDS_P2;PMS_P1;PMS_P2;Temp;Humidity;BMP_temperature;BMP_pressure;BME280_temperature;BME280_humidity;BME280_pressure;Samples;Min_cycle;Max_cycle;Signal;HPM_P1;HPM_P2
2022/09/15 00:01:08;;;;;;;10.55;3.50;;;;;;;19.19;50.48;95307.94;5009476;28;20029;-79
2022/09/15 00:03:33;;;;;;;8.32;2.78;;;;;;;19.17;49.71;95310.88;5009178;28;20091;-79
2022/09/15 00:05:59;;;;;;;12.07;3.60;;;;;;;19.14;50.28;95306.75;5025803;28;20029;-78
2022/09/15 00:08:24;;;;;;;6.60;3.03;;;;;;;19.15;50.10;95308.41;5027493;28;20037;-79
2022/09/15 00:10:56;;;;;;;5.82;3.10;;;;;;;19.17;50.77;95299.22;5025726;28;20036;-79
2022/09/15 00:13:22;;;;;;;6.78;2.45;;;;;;;19.16;50.27;95306.53;5026535;28;20025;-79
2022/09/15 00:15:47;;;;;;;7.38;2.40;;;;;;;19.11;49.48;95307.22;5009460;28;20021;-79
2022/09/15 00:18:12;;;;;;;6.25;2.53;;;;;;;19.13;49.34;95310.56;5026145;28;20025;-79
2022/09/15 00:20:40;;;;;;;4.78;2.58;;;;;;;19.04;49.77;95309.19;5026990;28;20041;-78
2022/09/15 00:23:05;;;;;;;4.18;2.22;;;;;;;19.07;49.68;95306.00;5025926;28;20046;-78
2022/09/15 00:25:30;;;;;;;5.30;2.40;;;;;;;19.03;49.41;95307.53;5027608;28;20048;-79
2022/09/15 00:27:56;;;;;;;5.10;2.42;;;;;;;19.05;49.59;95301.88;5026638;28;20436;-79
2022/09/15 00:30:21;;;;;;;9.15;2.50;;;;;;;19.05;49.32;95297.28;5026174;28;20523;-79
2022/09/15 00:32:47;;;;;;;5.93;2.60;;;;;;;19.03;49.54;95299.38;5008979;28;20030;-79
2022/09/15 00:35:12;;;;;;;4.28;2.40;;;;;;;18.99;49.17;95298.22;5009691;28;20044;-79
2022/09/15 00:37:38;;;;;;;6.15;2.55;;;;;;;19.00;49.31;95294.41;5026881;28;20026;-80
2022/09/15 00:40:03;;;;;;;3.80;2.40;;;;;;;18.95;49.62;95292.41;5026997;28;20034;-79
2022/09/15 00:42:29;;;;;;;8.05;2.47;;;;;;;18.82;49.89;95298.88;5026476;28;20115;-79
2022/09/15 00:44:59;;;;;;;9.18;2.53;;;;;;;18.83;50.12;95299.72;5008889;28;20435;-79
2022/09/15 00:47:31;;;;;;;6.57;2.58;;;;;;;18.83;49.94;95311.38;5009146;28;20036;-80
2022/09/15 00:50:00;;;;;;;6.40;4.03;;;;;;;18.81;50.45;95305.38;5025023;28;20028;-79
2022/09/15 00:52:31;;;;;;;10.05;3.10;;;;;;;18.82;50.80;95295.31;5009549;28;20040;-79
2022/09/15 00:55:12;;;;;;;4.70;2.70;;;;;;;18.80;50.33;95300.19;5025934;28;20021;-79
2022/09/15 00:58:05;;;;;;;6.05;2.50;;;;;;;18.77;50.06;95298.75;5025541;28;20036;-80
2022/09/15 01:00:31;;;;;;;5.03;2.03;;;;;;;18.68;50.23;95295.53;5026648;28;20117;-79
2022/09/15 01:02:56;;;;;;;15.93;2.92;;;;;;;18.64;50.68;95292.47;5024865;28;20218;-80
2022/09/15 01:05:24;;;;;;;5.85;2.60;;;;;;;18.48;51.38;95293.09;5025728;28;20037;-80
2022/09/15 01:07:52;;;;;;;4.55;2.90;;;;;;;18.50;51.16;95296.41;5009134;28;20227;-79
2022/09/15 01:10:31;;;;;;;4.90;2.67;;;;;;;18.46;51.40;95295.25;5027195;28;20116;-79
2022/09/15 01:13:00;;;;;;;4.90;2.47;;;;;;;18.45;52.06;95293.56;5008286;28;20052;-79
2022/09/15 01:15:31;;;;;;;4.63;2.70;;;;;;;18.44;52.48;95286.47;5025495;28;20593;-79
2022/09/15 01:18:17;;;;;;;5.00;3.00;;;;;;;18.34;52.49;95285.16;5009790;28;20091;-79
2022/09/15 01:20:57;;;;;;;6.40;2.70;;;;;;;18.31;52.72;95296.47;4994084;28;20029;-80
2022/09/15 01:23:50;;;;;;;7.65;4.28;;;;;;;18.24;52.29;95293.84;5025209;28;20042;-79
2022/09/15 01:26:44;;;;;;;10.57;5.75;;;;;;;18.11;52.62;95294.81;5026586;28;20045;-79
2022/09/15 01:29:28;;;;;;;14.43;9.13;;;;;;;18.09;52.99;95283.34;5008714;28;20533;-79
2022/09/15 01:34:43;;;;;;;9.23;4.25;;;;;;;18.03;53.20;95281.56;5010885;28;20083;-78
2022/09/15 01:37:14;;;;;;;10.43;4.78;;;;;;;17.91;53.62;95295.06;5008505;28;20033;-78
2022/09/15 01:39:42;;;;;;;10.57;4.30;;;;;;;17.94;53.74;95296.50;5024713;28;20100;-78
2022/09/15 01:42:09;;;;;;;6.97;3.90;;;;;;;17.91;53.88;95290.44;5008115;28;20366;-79
2022/09/15 01:45:15;;;;;;;8.40;4.43;;;;;;;17.98;53.79;95292.25;4992122;28;20068;-78
2022/09/15 01:47:41;;;;;;;10.10;4.63;;;;;;;17.99;53.96;95297.44;5006078;28;20025;-79
2022/09/15 01:50:10;;;;;;;12.60;5.32;;;;;;;17.96;53.80;95287.06;4990550;28;20034;-79
2022/09/15 01:52:36;;;;;;;11.20;6.00;;;;;;;17.91;54.32;95287.75;5024232;28;20053;-78
2022/09/15 01:55:05;;;;;;;11.88;8.00;;;;;;;17.90;53.89;95286.09;5007614;28;20095;-79
2022/09/15 01:57:32;;;;;;;11.82;7.28;;;;;;;17.77;54.08;95288.94;5008088;28;20037;-79
2022/09/15 01:59:57;;;;;;;9.20;7.07;;;;;;;17.72;54.74;95283.38;5023899;28;20021;-79
2022/09/15 02:02:32;;;;;;;11.40;6.82;;;;;;;17.69;54.57;95286.53;5008191;28;20029;-80
2022/09/15 02:05:04;;;;;;;12.30;6.90;;;;;;;17.62;55.22;95276.59;5007512;28;20032;-79
2022/09/15 02:07:35;;;;;;;9.68;6.32;;;;;;;17.68;54.71;95283.00;5025665;28;20026;-79
2022/09/15 02:10:10;;;;;;;18.67;7.40;;;;;;;17.73;55.02;95277.75;5025556;28;20037;-79
2022/09/15 02:12:46;;;;;;;10.88;7.10;;;;;;;17.72;54.63;95283.38;5024033;28;20076;-79
2022/09/15 02:15:13;;;;;;;13.35;9.35;;;;;;;17.72;54.42;95286.09;5008866;28;20090;-79
2022/09/15 02:17:48;;;;;;;14.20;7.68;;;;;;;17.68;54.84;95285.72;4990938;28;20420;-78
2022/09/15 02:20:24;;;;;;;9.98;7.18;;;;;;;17.73;55.70;95293.19;5008221;28;20029;-79
2022/09/15 02:22:53;;;;;;;11.32;6.30;;;;;;;17.72;55.68;95286.91;5007644;28;20045;-79
2022/09/15 02:25:30;;;;;;;10.30;5.65;;;;;;;17.66;55.44;95285.94;5010924;28;20538;-80
2022/09/15 02:27:58;;;;;;;15.77;8.52;;;;;;;17.60;55.09;95286.03;5014074;28;20045;-79
2022/09/15 02:30:24;;;;;;;10.77;7.78;;;;;;;17.55;54.65;95275.84;5014069;28;20112;-79
2022/09/15 02:32:59;;;;;;;20.08;12.00;;;;;;;17.49;54.67;95274.84;5014378;28;20416;-79
2022/09/15 02:35:25;;;;;;;20.27;12.95;;;;;;;17.49;55.06;95271.34;5030596;28;20444;-80
2022/09/15 02:37:51;;;;;;;18.17;10.80;;;;;;;17.52;55.30;95266.25;5014644;28;20021;-79
2022/09/15 02:40:16;;;;;;;17.55;10.27;;;;;;;17.45;55.61;95265.53;5013662;28;20408;-79
2022/09/15 02:42:50;;;;;;;18.25;9.50;;;;;;;17.49;56.04;95276.75;5013859;28;20037;-78
2022/09/15 02:45:15;;;;;;;10.60;6.07;;;;;;;17.44;55.50;95290.16;5014828;28;20032;-79
2022/09/15 02:47:41;;;;;;;8.25;4.60;;;;;;;17.32;55.91;95282.75;5031735;28;20025;-79
2022/09/15 02:50:06;;;;;;;11.43;5.65;;;;;;;17.36;56.60;95281.25;5030363;28;20038;-80
2022/09/15 02:52:32;;;;;;;10.40;5.40;;;;;;;17.32;57.08;95281.91;5029997;28;20484;-80
2022/09/15 02:54:58;;;;;;;9.20;5.03;;;;;;;17.30;57.25;95279.41;5031951;28;20037;-79
2022/09/15 02:57:23;;;;;;;8.05;5.43;;;;;;;17.30;57.96;95282.13;5013670;28;20041;-79
2022/09/15 03:02:33;;;;;;;11.38;4.93;;;;;;;17.10;58.38;95272.34;5031849;28;20087;-80
2022/09/15 03:04:58;;;;;;;11.68;5.30;;;;;;;17.02;58.87;95275.28;5031359;28;20496;-79
2022/09/15 03:07:24;;;;;;;13.60;7.28;;;;;;;16.99;59.31;95286.56;5030377;28;20021;-79
2022/09/15 03:09:49;;;;;;;15.82;6.70;;;;;;;16.92;59.26;95284.75;5031529;28;20021;-79
2022/09/15 03:12:15;;;;;;;22.30;5.38;;;;;;;17.00;59.00;95293.63;5032192;28;20021;-79
2022/09/15 03:14:40;;;;;;;16.58;5.65;;;;;;;17.05;59.19;95293.81;5014181;28;20403;-79
2022/09/15 03:17:05;;;;;;;14.90;5.43;;;;;;;16.96;59.15;95301.38;5014773;28;20024;-79
2022/09/15 03:19:31;;;;;;;15.65;6.10;;;;;;;16.94;59.43;95303.50;5029967;28;20048;-80
2022/09/15 03:21:56;;;;;;;17.70;6.20;;;;;;;16.95;59.77;95304.28;5030863;28;20046;-79
2022/09/15 03:24:22;;;;;;;14.85;5.43;;;;;;;16.92;60.06;95301.00;5031026;28;20135;-79
2022/09/15 03:26:47;;;;;;;13.13;6.13;;;;;;;16.92;59.46;95313.69;5032169;28;20405;-79
2022/09/15 03:29:13;;;;;;;16.23;6.57;;;;;;;16.90;59.66;95307.66;5031159;28;20559;-79
2022/09/15 03:31:38;;;;;;;22.60;5.93;;;;;;;16.80;60.25;95303.56;5032131;28;20041;-79
2022/09/15 03:34:04;;;;;;;21.85;5.72;;;;;;;16.80;59.93;95308.16;5031304;28;20393;-79
2022/09/15 03:36:29;;;;;;;18.02;5.57;;;;;;;16.78;59.51;95307.56;5028317;28;20506;-81
2022/09/15 03:38:56;;;;;;;11.65;5.80;;;;;;;16.76;59.68;95305.06;5011609;28;20401;-79
2022/09/15 03:41:22;;;;;;;17.35;6.40;;;;;;;16.71;59.37;95310.31;5010747;28;20026;-79
2022/09/15 03:43:48;;;;;;;13.93;7.00;;;;;;;16.67;59.31;95309.06;5027536;28;20072;-79
2022/09/15 03:46:13;;;;;;;14.98;6.38;;;;;;;16.71;59.33;95294.06;5027082;28;20032;-79
2022/09/15 03:48:39;;;;;;;13.70;5.93;;;;;;;16.68;58.58;95295.31;5010897;28;20030;-79
2022/09/15 03:51:05;;;;;;;11.80;5.97;;;;;;;16.57;58.75;95304.16;5027143;28;20079;-79
2022/09/15 03:53:34;;;;;;;15.98;5.57;;;;;;;16.63;58.55;95303.28;5026822;28;20029;-79
2022/09/15 03:56:06;;;;;;;16.90;6.15;;;;;;;16.70;59.15;95307.81;5026944;28;20022;-79
2022/09/15 03:58:32;;;;;;;9.70;5.78;;;;;;;16.67;59.09;95298.25;5027335;28;20374;-79
2022/09/15 04:00:57;;;;;;;19.60;6.05;;;;;;;16.59;59.72;95301.25;5028205;28;20040;-78
2022/09/15 04:03:22;;;;;;;11.75;5.38;;;;;;;16.59;59.46;95293.13;5009425;28;20025;-79
2022/09/15 04:05:48;;;;;;;10.40;6.47;;;;;;;16.61;60.04;95289.13;5027818;28;20052;-78
2022/09/15 04:08:13;;;;;;;14.00;5.57;;;;;;;16.61;59.45;95302.66;5028001;28;20025;-79
2022/09/15 04:10:40;;;;;;;19.77;6.05;;;;;;;16.57;59.72;95304.16;5029997;28;20024;-79
2022/09/15 04:13:05;;;;;;;14.90;5.93;;;;;;;16.56;60.03;95306.03;5009815;28;20033;-79
2022/09/15 04:15:31;;;;;;;15.00;5.55;;;;;;;16.56;60.20;95307.91;5025814;28;20060;-80
2022/09/15 04:17:57;;;;;;;22.25;6.00;;;;;;;16.43;60.72;95304.22;5026729;28;20481;-79
2022/09/15 04:20:23;;;;;;;19.98;6.38;;;;;;;16.41;60.89;95300.91;5026693;28;20060;-80
2022/09/15 04:22:49;;;;;;;16.73;5.88;;;;;;;16.44;60.76;95300.47;5026706;28;20041;-79
2022/09/15 04:25:14;;;;;;;15.60;5.53;;;;;;;16.43;60.73;95304.22;5009811;28;20024;-80
2022/09/15 04:27:40;;;;;;;18.17;6.38;;;;;;;16.48;60.83;95303.59;5026622;28;20044;-79
2022/09/15 04:30:06;;;;;;;20.83;6.82;;;;;;;16.50;60.81;95306.91;5027718;28;20029;-80
2022/09/15 04:32:32;;;;;;;20.85;6.72;;;;;;;16.56;60.60;95313.31;5009919;28;20029;-79
2022/09/15 04:34:57;;;;;;;20.92;6.57;;;;;;;16.52;60.43;95309.41;4993330;28;20508;-79
2022/09/15 04:37:23;;;;;;;22.00;7.10;;;;;;;16.54;60.51;95315.44;5010115;28;20032;-80
2022/09/15 04:39:48;;;;;;;32.95;7.93;;;;;;;16.55;60.12;95311.66;5009630;28;20037;-79
2022/09/15 04:42:14;;;;;;;17.88;6.95;;;;;;;16.60;60.34;95314.56;5025113;28;20057;-79
2022/09/15 04:44:39;;;;;;;16.33;6.93;;;;;;;16.62;60.19;95311.63;5025858;28;20033;-79
2022/09/15 04:47:05;;;;;;;17.15;6.60;;;;;;;16.59;60.04;95303.94;5025453;28;20053;-78
2022/09/15 04:49:31;;;;;;;13.38;6.75;;;;;;;16.63;60.24;95314.13;5026903;28;20025;-80
2022/09/15 04:51:56;;;;;;;16.92;6.28;;;;;;;16.75;60.35;95313.41;5008900;28;20034;-79
2022/09/15 04:54:22;;;;;;;22.00;6.82;;;;;;;16.82;59.70;95316.91;5026692;28;20028;-80
2022/09/15 04:56:48;;;;;;;15.13;6.47;;;;;;;16.86;59.35;95309.16;5026336;28;20037;-80
2022/09/15 04:59:17;;;;;;;13.48;6.00;;;;;;;16.90;58.99;95313.09;5025527;28;20026;-80
2022/09/15 05:01:43;;;;;;;14.32;6.03;;;;;;;16.91;59.21;95304.75;5025463;28;20503;-79
2022/09/15 05:04:08;;;;;;;18.83;7.93;;;;;;;16.89;59.49;95304.16;5024868;28;20033;-80
2022/09/15 05:06:34;;;;;;;15.20;6.60;;;;;;;16.98;59.77;95303.84;5025716;28;20026;-79
2022/09/15 05:08:59;;;;;;;20.73;6.95;;;;;;;17.10;59.32;95302.13;5024727;28;20404;-80
2022/09/15 05:11:25;;;;;;;12.30;6.40;;;;;;;17.15;59.76;95296.06;5008946;28;20056;-79
2022/09/15 05:13:51;;;;;;;15.43;6.78;;;;;;;17.25;58.01;95299.06;5024687;28;20052;-79
2022/09/15 05:16:21;;;;;;;16.67;6.28;;;;;;;17.32;57.94;95296.31;4992238;28;20033;-79
2022/09/15 05:18:47;;;;;;;17.67;7.55;;;;;;;17.36;57.89;95289.38;5008718;28;20079;-79
2022/09/15 05:21:14;;;;;;;18.80;7.10;;;;;;;17.42;58.28;95284.94;5024340;28;20112;-79
2022/09/15 05:23:39;;;;;;;14.75;6.88;;;;;;;17.47;58.91;95289.69;5009117;28;20026;-80
2022/09/15 05:26:06;;;;;;;16.67;6.43;;;;;;;17.60;58.38;95294.16;5024259;28;20041;-80
2022/09/15 05:28:32;;;;;;;15.77;6.65;;;;;;;17.70;57.19;95283.59;5026582;28;20075;-79
2022/09/15 05:30:58;;;;;;;19.73;8.02;;;;;;;17.78;57.76;95285.19;5024102;28;20117;-79
2022/09/15 05:33:23;;;;;;;16.40;7.57;;;;;;;17.81;58.29;95284.75;5024505;28;20549;-79
2022/09/15 05:35:53;;;;;;;44.95;9.00;;;;;;;17.92;58.26;95283.16;5008683;28;20022;-80
2022/09/15 05:38:19;;;;;;;29.48;9.73;;;;;;;17.94;58.02;95288.34;5008332;28;20037;-79
2022/09/15 05:40:44;;;;;;;15.55;6.18;;;;;;;18.06;58.05;95275.66;5010108;28;20029;-80
2022/09/15 05:43:10;;;;;;;24.25;5.90;;;;;;;18.09;57.78;95282.53;5024032;28;20091;-80
2022/09/15 05:45:35;;;;;;;28.48;6.95;;;;;;;18.16;58.50;95269.72;5026679;28;20028;-79
2022/09/15 05:48:02;;;;;;;26.15;6.88;;;;;;;18.17;57.96;95260.53;5023903;28;20035;-80
2022/09/15 05:50:29;;;;;;;40.80;7.13;;;;;;;18.30;57.19;95258.72;5024964;28;20052;-79
2022/09/15 05:52:55;;;;;;;18.95;6.10;;;;;;;18.41;57.45;95252.47;5023817;28;20025;-79
2022/09/15 05:55:20;;;;;;;22.10;7.05;;;;;;;18.48;58.19;95257.81;5007764;28;20056;-79
2022/09/15 05:57:46;;;;;;;15.68;6.35;;;;;;;18.56;57.19;95268.34;5025767;28;20032;-80
2022/09/15 06:00:12;;;;;;;17.00;6.25;;;;;;;18.70;56.53;95257.28;5024782;28;20040;-79
2022/09/15 06:02:37;;;;;;;17.40;6.68;;;;;;;18.85;55.59;95263.09;5024608;28;20108;-81
2022/09/15 06:05:03;;;;;;;14.77;5.55;;;;;;;19.00;56.31;95262.66;5023489;28;20036;-80
2022/09/15 06:07:28;;;;;;;15.63;6.25;;;;;;;19.14;56.50;95282.31;5008500;28;20413;-80
2022/09/15 06:09:54;;;;;;;15.88;5.32;;;;;;;19.22;54.90;95278.41;4991116;28;20037;-80
2022/09/15 06:12:20;;;;;;;14.48;5.10;;;;;;;19.37;54.67;95277.94;5024414;28;20033;-80
2022/09/15 06:14:49;;;;;;;21.35;5.20;;;;;;;19.49;53.70;95269.75;5007340;28;20083;-79
2022/09/15 06:17:17;;;;;;;11.07;4.57;;;;;;;19.64;53.06;95274.72;5007623;28;20032;-80
2022/09/15 06:19:42;;;;;;;13.35;4.80;;;;;;;19.73;52.80;95256.13;5024001;28;20048;-80
2022/09/15 06:22:07;;;;;;;9.18;4.13;;;;;;;19.83;52.33;95255.50;5024213;28;20058;-80
2022/09/15 06:24:33;;;;;;;9.18;4.25;;;;;;;20.01;51.62;95275.47;5024067;28;20033;-79
2022/09/15 06:26:59;;;;;;;13.40;5.68;;;;;;;20.09;51.65;95261.50;5023249;28;20033;-81
2022/09/15 06:29:24;;;;;;;8.27;4.25;;;;;;;20.06;50.84;95253.00;4991710;28;20037;-80
2022/09/15 06:31:50;;;;;;;10.65;4.25;;;;;;;20.05;49.81;95245.91;5023762;28;20033;-80
2022/09/15 06:34:15;;;;;;;6.30;3.40;;;;;;;20.26;48.93;95253.38;5007309;28;20030;-80
2022/09/15 06:36:41;;;;;;;8.00;4.03;;;;;;;20.38;47.99;95256.06;5025174;28;20022;-80
2022/09/15 06:39:07;;;;;;;9.15;3.60;;;;;;;20.54;48.24;95250.91;5006891;28;20040;-80
2022/09/15 06:41:33;;;;;;;8.52;4.03;;;;;;;20.71;48.07;95250.94;5024102;28;20025;-80
2022/09/15 06:43:58;;;;;;;8.50;3.85;;;;;;;20.65;48.30;95251.09;5006998;28;20083;-80
2022/09/15 06:46:24;;;;;;;6.10;3.42;;;;;;;20.85;48.01;95256.06;5025552;28;20104;-81
2022/09/15 06:48:50;;;;;;;9.52;3.50;;;;;;;20.91;48.08;95259.72;5007054;28;20056;-80
2022/09/15 06:51:17;;;;;;;4.60;2.92;;;;;;;21.10;47.92;95258.41;5023841;28;20029;-81
2022/09/15 06:53:43;;;;;;;8.05;3.42;;;;;;;21.26;46.82;95261.38;5007378;28;20057;-81
2022/09/15 06:56:12;;;;;;;4.80;3.22;;;;;;;21.53;46.09;95259.84;5023617;28;20032;-80
2022/09/15 06:58:38;;;;;;;8.68;3.13;;;;;;;21.50;46.57;95263.91;4991763;28;20026;-81
2022/09/15 07:01:08;;;;;;;5.38;3.05;;;;;;;21.19;45.51;95271.63;5007195;28;20505;-81
2022/09/15 07:03:34;;;;;;;10.93;4.15;;;;;;;21.02;45.87;95271.63;5023942;28;20199;-80
2022/09/15 07:05:59;;;;;;;8.55;3.88;;;;;;;20.79;46.83;95278.84;5023350;28;20029;-80
2022/09/15 07:08:25;;;;;;;5.85;3.25;;;;;;;20.96;46.91;95284.31;5025059;28;20095;-81
2022/09/15 07:10:51;;;;;;;6.47;3.55;;;;;;;20.83;48.13;95290.94;5024724;28;20029;-80
2022/09/15 07:13:16;;;;;;;7.60;3.65;;;;;;;20.93;47.65;95299.28;5026682;28;20530;-80
2022/09/15 07:15:49;;;;;;;8.80;3.70;;;;;;;20.71;48.65;95307.31;5026816;28;20025;-80
2022/09/15 07:18:14;;;;;;;;;;;;;;;20.94;47.65;95308.31;5027253;28;20037;-80
2022/09/15 07:20:40;;;;;;;6.57;3.03;;;;;;;20.74;47.96;95310.41;5028373;28;20308;-81
2022/09/15 07:23:06;;;;;;;10.90;3.72;;;;;;;20.80;48.11;95321.38;5026038;28;20409;-80
2022/09/15 07:25:31;;;;;;;8.55;3.92;;;;;;;20.91;49.11;95316.94;5028593;28;20036;-81
2022/09/15 07:27:57;;;;;;;10.13;3.85;;;;;;;21.23;48.28;95317.22;5027634;28;20416;-80
2022/09/15 07:30:22;;;;;;;5.78;3.00;;;;;;;21.44;47.71;95308.56;5027370;28;20103;-78
2022/09/15 07:32:47;;;;;;;8.48;3.70;;;;;;;21.67;47.80;95312.16;5027959;28;20034;-80
2022/09/15 07:35:13;;;;;;;9.43;3.22;;;;;;;21.96;46.69;95317.47;5028079;28;20021;-79
2022/09/15 07:37:39;;;;;;;6.88;3.70;;;;;;;22.00;47.37;95307.72;5026671;28;20029;-81
2022/09/15 07:40:04;;;;;;;10.45;3.58;;;;;;;21.90;46.47;95299.38;5027556;28;20029;-81
2022/09/15 07:42:31;;;;;;;9.35;3.63;;;;;;;21.82;47.38;95295.19;5010206;28;20033;-81
2022/09/15 07:44:56;;;;;;;8.73;3.88;;;;;;;21.89;46.85;95289.56;5025978;28;20101;-80
2022/09/15 07:47:22;;;;;;;6.78;3.58;;;;;;;22.06;46.29;95290.31;5028137;28;20048;-83
2022/09/15 07:49:49;;;;;;;11.57;4.20;;;;;;;22.36;45.61;95296.41;5027362;28;20041;-81
2022/09/15 07:52:14;;;;;;;6.82;3.33;;;;;;;22.61;45.27;95292.34;5010167;28;20033;-80
2022/09/15 07:54:40;;;;;;;9.23;3.60;;;;;;;22.75;45.43;95291.94;5025940;28;20032;-80
2022/09/15 07:57:05;;;;;;;7.63;3.78;;;;;;;23.05;45.56;95294.09;5026013;28;20040;-80
2022/09/15 07:59:31;;;;;;;9.82;3.50;;;;;;;23.19;44.11;95293.69;5027363;28;20030;-81
2022/09/15 08:01:56;;;;;;;11.55;3.60;;;;;;;23.55;42.92;95295.91;5025894;28;20037;-82
2022/09/15 08:04:22;;;;;;;6.15;3.35;;;;;;;23.71;43.44;95292.16;5010447;28;20429;-80
2022/09/15 08:06:47;;;;;;;5.90;3.55;;;;;;;23.73;43.63;95289.16;5025316;28;20037;-80
2022/09/15 08:09:16;;;;;;;9.35;3.90;;;;;;;23.83;43.00;95285.66;5028244;28;20021;-80
2022/09/15 08:11:41;;;;;;;9.10;3.47;;;;;;;23.93;43.16;95279.41;5026899;28;20487;-80
2022/09/15 08:14:07;;;;;;;10.43;3.65;;;;;;;23.91;44.25;95284.31;5026125;28;20025;-80
2022/09/15 08:16:32;;;;;;;4.80;3.03;;;;;;;23.77;43.35;95276.59;5009166;28;20569;-81
2022/09/15 08:18:58;;;;;;;10.48;3.22;;;;;;;23.69;43.52;95277.09;5025973;28;20036;-80
2022/09/15 08:21:24;;;;;;;8.65;3.60;;;;;;;23.89;43.27;95272.81;5009760;28;20049;-80
2022/09/15 08:23:51;;;;;;;7.78;3.50;;;;;;;24.08;43.08;95276.72;5024636;28;20394;-82
2022/09/15 08:26:17;;;;;;;8.13;3.33;;;;;;;24.25;42.29;95261.19;5026715;28;20368;-81
2022/09/15 08:28:42;;;;;;;9.07;3.13;;;;;;;24.51;42.73;95258.53;5024898;28;20021;-80
2022/09/15 08:31:09;;;;;;;7.35;3.03;;;;;;;24.63;41.74;95256.38;5026557;28;20045;-80
2022/09/15 08:33:34;;;;;;;5.22;3.10;;;;;;;24.67;42.51;95257.47;5025461;28;20385;-80
2022/09/15 08:36:05;;;;;;;8.25;3.63;;;;;;;24.85;40.91;95246.25;5025786;28;20490;-79
2022/09/15 08:38:31;;;;;;;12.82;3.58;;;;;;;24.56;41.16;95242.94;5025877;28;20032;-80
2022/09/15 08:40:59;;;;;;;14.93;3.60;;;;;;;24.46;42.09;95245.66;5008533;28;20034;-81
2022/09/15 08:43:25;;;;;;;8.60;3.72;;;;;;;24.70;41.99;95239.66;5009455;28;20250;-81
2022/09/15 08:45:59;;;;;;;5.18;3.13;;;;;;;25.06;40.17;95247.13;5024623;28;20018;-82
2022/09/15 08:48:26;;;;;;;8.07;3.15;;;;;;;25.02;40.45;95244.09;5026121;28;20407;-82
2022/09/15 08:50:52;;;;;;;9.40;3.53;;;;;;;25.04;40.84;95239.16;5025022;28;20034;-80
2022/09/15 08:53:28;;;;;;;9.25;3.30;;;;;;;25.28;41.11;95235.84;5008794;28;20107;-80
2022/09/15 08:55:54;;;;;;;11.23;3.65;;;;;;;25.49;40.31;95227.56;5009187;28;20021;-81
2022/09/15 08:58:44;;;;;;;10.43;2.92;;;;;;;25.64;38.87;95231.41;5008474;28;20028;-80
2022/09/15 09:01:10;;;;;;;7.32;3.42;;;;;;;25.69;39.53;95223.19;5026241;28;20140;-82
2022/09/15 09:04:02;;;;;;;7.55;3.78;;;;;;;25.87;39.45;95212.69;5025788;28;20128;-79
2022/09/15 09:06:39;;;;;;;7.53;3.30;;;;;;;25.92;38.69;95210.72;5023351;28;20061;-82
2022/09/15 09:09:10;;;;;;;10.13;3.33;;;;;;;25.98;39.23;95214.28;5024843;28;20287;-80
2022/09/15 09:12:14;;;;;;;5.95;2.72;;;;;;;26.02;39.86;95198.88;5024516;28;20029;-81
2022/09/15 09:14:53;;;;;;;11.30;3.88;;;;;;;26.18;40.10;95201.56;5025305;28;20095;-80
2022/09/15 09:17:56;;;;;;;9.45;3.45;;;;;;;26.36;37.34;95196.53;5024858;28;20034;-81
2022/09/15 09:20:43;;;;;;;9.18;3.47;;;;;;;26.45;38.06;95194.00;5025639;28;20029;-80
2022/09/15 09:23:11;;;;;;;9.27;3.35;;;;;;;26.47;37.05;95187.09;5008763;28;20088;-80
2022/09/15 09:25:37;;;;;;;8.88;2.72;;;;;;;26.52;37.29;95178.81;5025888;28;20041;-81
2022/09/15 09:28:04;;;;;;;9.18;3.55;;;;;;;26.77;36.58;95178.91;5024338;28;20083;-81
2022/09/15 09:30:30;;;;;;;11.35;3.50;;;;;;;26.79;37.16;95187.72;4992299;28;20021;-81
2022/09/15 09:33:17;;;;;;;7.38;2.85;;;;;;;26.87;35.57;95176.09;5007683;28;20025;-81
2022/09/15 09:35:50;;;;;;;6.05;2.80;;;;;;;27.06;36.83;95174.56;5024305;28;20040;-81
2022/09/15 09:38:26;;;;;;;7.60;3.22;;;;;;;27.05;37.71;95167.44;5023995;28;20392;-81
2022/09/15 09:40:51;;;;;;;12.80;3.83;;;;;;;27.11;37.76;95172.63;5009469;28;20083;-80
2022/09/15 09:43:17;;;;;;;10.25;3.78;;;;;;;27.14;37.34;95177.53;5024013;28;20029;-81
2022/09/15 09:45:44;;;;;;;9.70;3.88;;;;;;;27.09;36.75;95174.00;5007609;28;20436;-80
2022/09/15 09:48:23;;;;;;;11.10;4.35;;;;;;;27.00;36.61;95169.09;5008277;28;20029;-81
2022/09/15 09:50:49;;;;;;;18.35;3.75;;;;;;;27.08;37.23;95172.38;5007156;28;20439;-81
2022/09/15 09:53:20;;;;;;;9.88;3.20;;;;;;;27.19;36.61;95173.09;5024799;28;20108;-80
2022/09/15 09:55:46;;;;;;;8.87;3.00;;;;;;;27.21;35.59;95166.19;5024979;28;20036;-80
2022/09/15 09:58:15;;;;;;;10.75;3.47;;;;;;;27.26;35.42;95163.38;5007588;28;20029;-81
2022/09/15 10:00:41;;;;;;;6.45;3.08;;;;;;;27.38;35.45;95160.22;5007878;28;20029;-81
2022/09/15 10:03:22;;;;;;;9.38;2.88;;;;;;;27.39;35.33;95156.34;5023462;28;20033;-81
2022/09/15 10:06:17;;;;;;;9.20;3.63;;;;;;;27.34;35.34;95153.66;5024750;28;20060;-80
2022/09/15 10:08:53;;;;;;;10.02;3.10;;;;;;;27.49;35.26;95152.66;5024063;28;20095;-80
2022/09/15 10:11:18;;;;;;;11.40;3.08;;;;;;;27.57;35.01;95153.16;5023663;28;20022;-81
2022/09/15 10:13:53;;;;;;;14.18;3.50;;;;;;;27.69;35.61;95153.59;5025170;28;20546;-81
2022/09/15 10:16:19;;;;;;;7.50;3.50;;;;;;;27.72;35.37;95153.00;5006683;28;20029;-80
2022/09/15 10:18:44;;;;;;;7.70;2.90;;;;;;;27.76;33.92;95154.03;5007776;28;20033;-80
2022/09/15 10:21:10;;;;;;;6.55;2.50;;;;;;;27.80;31.44;95143.25;5006112;28;20456;-80
2022/09/15 10:23:35;;;;;;;7.63;2.80;;;;;;;27.93;32.62;95146.38;5008257;28;20476;-81
2022/09/15 10:26:21;;;;;;;9.18;2.20;;;;;;;27.93;32.98;95138.94;5024649;28;20025;-81
2022/09/15 10:29:11;;;;;;;10.68;2.95;;;;;;;27.90;33.53;95142.31;5007173;28;20029;-82
2022/09/15 10:31:37;;;;;;;7.65;2.60;;;;;;;27.91;32.57;95143.94;5024245;28;20033;-81
2022/09/15 10:34:24;;;;;;;8.60;2.83;;;;;;;28.20;32.78;95134.72;5006390;28;20029;-80
2022/09/15 10:36:52;;;;;;;7.88;2.88;;;;;;;28.26;33.17;95133.53;5025845;28;20104;-81
2022/09/15 10:39:33;;;;;;;8.30;2.60;;;;;;;28.46;30.83;95136.28;5006764;28;20468;-82
2022/09/15 10:42:26;;;;;;;8.18;3.47;;;;;;;28.42;31.66;95141.63;5007717;28;20064;-82
2022/09/15 10:45:17;;;;;;;4.88;2.08;;;;;;;28.07;29.31;95129.97;5009436;28;20114;-81
2022/09/15 10:47:48;;;;;;;9.35;1.83;;;;;;;28.32;28.25;95126.03;5028259;28;20377;-80
2022/09/15 10:50:39;;;;;;;5.95;2.00;;;;;;;28.43;28.46;95126.69;5027960;28;20029;-81
2022/09/15 10:53:42;;;;;;;6.82;1.30;;;;;;;28.59;27.87;95124.50;5028527;28;20083;-81
2022/09/15 10:56:18;;;;;;;5.35;1.65;;;;;;;28.62;27.62;95125.84;5012891;28;20044;-80
2022/09/15 10:59:12;;;;;;;14.27;2.13;;;;;;;28.56;28.30;95114.09;5027825;28;20032;-81
2022/09/15 11:01:58;;;;;;;6.43;1.80;;;;;;;28.22;28.39;95109.59;5027042;28;20591;-81
2022/09/15 11:04:43;;;;;;;10.15;1.98;;;;;;;28.25;28.07;95109.00;5027658;28;20389;-81
2022/09/15 11:07:30;;;;;;;7.07;1.70;;;;;;;28.31;28.38;95107.00;5029112;28;20044;-82
2022/09/15 11:10:07;;;;;;;6.22;1.60;;;;;;;28.39;28.67;95098.06;5026952;28;20045;-80
2022/09/15 11:12:33;;;;;;;4.43;1.40;;;;;;;28.38;27.85;95094.50;5028070;28;20059;-82
2022/09/15 11:14:58;;;;;;;7.63;1.85;;;;;;;28.50;27.70;95093.22;5028363;28;20511;-82
2022/09/15 11:17:42;;;;;;;8.57;1.92;;;;;;;28.49;28.29;95099.84;5027323;28;20030;-82
2022/09/15 11:20:38;;;;;;;11.90;1.75;;;;;;;28.58;28.81;95094.47;5029245;28;20021;-80
2022/09/15 11:23:16;;;;;;;6.85;1.70;;;;;;;28.61;29.04;95091.09;5011658;28;20500;-81
2022/09/15 11:25:44;;;;;;;7.50;2.10;;;;;;;28.59;28.68;95087.81;5026223;28;20036;-81
2022/09/15 11:28:30;;;;;;;5.22;1.80;;;;;;;28.41;29.95;95084.81;5010788;28;20492;-81
2022/09/15 11:31:01;;;;;;;4.65;1.83;;;;;;;28.40;30.18;95083.19;5026041;28;20134;-80
2022/09/15 11:33:48;;;;;;;8.75;1.83;;;;;;;28.53;29.75;95084.34;5010732;28;20017;-80
2022/09/15 11:36:27;;;;;;;11.82;2.42;;;;;;;28.80;29.48;95076.44;5026680;28;20025;-80
2022/09/15 11:39:23;;;;;;;3.75;1.30;;;;;;;28.98;28.97;95074.78;5010955;28;20079;-81
2022/09/15 11:41:55;;;;;;;9.63;1.98;;;;;;;29.05;28.64;95068.84;5026337;28;20057;-80
2022/09/15 11:44:29;;;;;;;5.63;1.70;;;;;;;29.20;28.92;95067.72;5026116;28;20572;-81
2022/09/15 11:47:03;;;;;;;8.52;1.75;;;;;;;29.34;29.27;95064.97;5027530;28;20061;-80